Time;durP1;ratioP1;P1;durP2;ratioP2;P2;SDS_P1;SDS_P2;PMS_P1;PMS_P2;Temp;Humidity;BMP_temperature;BMP_pressure;BME280_temperature;BME280_humidity;BME280_pressure;Samples;Min_cycle;Max_cycle;Signal;HPM_P1;HPM_P2
2022/03/31 00:00:21;;;;;;;11.83;5.60;;;4.30;99.90;;;;;;5022796;28;20263;-76
2022/03/31 00:02:46;;;;;;;9.57;5.23;;;4.30;99.90;;;;;;5024371;28;20280;-78
2022/03/31 00:05:13;;;;;;;6.97;4.73;;;4.30;99.90;;;;;;5028499;28;20796;-77
2022/03/31 00:07:53;;;;;;;13.70;5.57;;;4.20;99.90;;;;;;5034073;28;20224;-76
2022/03/31 00:10:20;;;;;;;7.90;5.33;;;4.20;99.90;;;;;;5035653;28;20336;-77
2022/03/31 00:12:46;;;;;;;8.87;4.53;;;4.00;99.90;;;;;;5031512;28;20270;-78
2022/03/31 00:15:11;;;;;;;10.07;6.17;;;4.00;99.90;;;;;;5028380;28;20769;-77
2022/03/31 00:17:37;;;;;;;7.53;4.87;;;4.00;99.90;;;;;;5025127;28;20632;-77
2022/03/31 00:20:03;;;;;;;8.73;4.70;;;3.90;99.90;;;;;;5018158;28;20235;-76
2022/03/31 00:22:28;;;;;;;7.63;4.83;;;3.90;99.90;;;;;;5023524;28;20265;-76
2022/03/31 00:24:54;;;;;;;9.40;4.97;;;3.90;99.90;;;;;;5037774;28;20223;-76
2022/03/31 00:27:19;;;;;;;7.97;5.30;;;4.00;99.90;;;;;;5025207;28;20177;-76
2022/03/31 00:29:45;;;;;;;8.40;5.07;;;4.00;99.90;;;;;;5017180;28;20584;-76
2022/03/31 00:32:10;;;;;;;12.63;5.30;;;3.90;99.90;;;;;;5029454;28;20208;-77
2022/03/31 00:34:36;;;;;;;10.70;4.70;;;3.80;99.90;;;;;;5031259;28;20231;-75
2022/03/31 00:37:02;;;;;;;12.20;5.13;;;3.80;99.90;;;;;;5031614;28;20636;-76
2022/03/31 00:39:32;;;;;;;7.50;4.10;;;3.80;99.90;;;;;;5029852;28;20196;-77
2022/03/31 00:41:59;;;;;;;6.97;4.20;;;3.70;99.90;;;;;;5031787;28;20211;-77
2022/03/31 00:44:25;;;;;;;13.00;4.63;;;3.60;99.90;;;;;;5031417;28;20670;-77
2022/03/31 00:46:52;;;;;;;7.73;4.80;;;3.60;99.90;;;;;;5031933;28;20203;-77
2022/03/31 00:49:19;;;;;;;10.23;5.70;;;3.50;99.90;;;;;;5030280;28;20220;-76
2022/03/31 00:51:46;;;;;;;8.53;4.87;;;3.50;99.90;;;;;;5046402;28;20186;-76
2022/03/31 00:54:12;;;;;;;8.53;5.00;;;3.50;99.90;;;;;;5031608;28;20698;-76
2022/03/31 00:56:39;;;;;;;12.47;4.90;;;3.40;99.90;;;;;;5031090;28;20291;-76
2022/03/31 00:59:06;;;;;;;11.83;4.90;;;3.50;99.90;;;;;;5029210;28;20205;-76
2022/03/31 01:01:32;;;;;;;9.37;4.40;;;3.50;99.90;;;;;;5023063;28;20703;-76
2022/03/31 01:04:00;;;;;;;10.03;5.10;;;3.50;99.90;;;;;;5031129;28;20209;-76
2022/03/31 01:06:26;;;;;;;11.73;4.97;;;3.40;99.90;;;;;;5031553;28;20211;-76
2022/03/31 01:08:51;;;;;;;8.57;4.83;;;3.40;99.90;;;;;;5028749;28;20932;-76
2022/03/31 01:11:17;;;;;;;9.50;4.70;;;3.30;99.90;;;;;;5028877;28;20211;-76
2022/03/31 01:13:42;;;;;;;12.50;5.10;;;3.40;99.90;;;;;;5029569;28;20288;-76
2022/03/31 01:16:08;;;;;;;8.43;4.10;;;3.40;99.90;;;;;;5030911;28;20196;-76
2022/03/31 01:18:34;;;;;;;9.40;5.83;;;3.20;99.90;;;;;;5027991;28;20215;-77
2022/03/31 01:21:01;;;;;;;8.40;4.40;;;3.10;99.90;;;;;;5026375;28;20169;-75
2022/03/31 01:23:27;;;;;;;7.53;4.40;;;3.10;99.90;;;;;;5030610;28;20701;-74
2022/03/31 01:25:52;;;;;;;8.43;4.60;;;3.10;99.90;;;;;;5030731;28;20207;-76
2022/03/31 01:28:18;;;;;;;8.17;4.90;;;3.10;99.90;;;;;;5029744;28;20280;-76
2022/03/31 01:30:44;;;;;;;8.33;4.33;;;3.10;99.90;;;;;;5029483;28;20540;-76
2022/03/31 01:33:11;;;;;;;8.43;4.27;;;3.00;99.90;;;;;;5029839;28;20168;-75
2022/03/31 01:35:36;;;;;;;7.33;4.53;;;3.00;99.90;;;;;;5045742;28;20237;-76
2022/03/31 01:38:02;;;;;;;11.17;5.33;;;3.00;99.90;;;;;;5028296;28;20211;-75
2022/03/31 01:40:28;;;;;;;6.83;3.97;;;3.00;99.90;;;;;;5030345;28;20560;-75
2022/03/31 01:42:54;;;;;;;7.13;4.17;;;3.00;99.90;;;;;;5030605;28;20222;-75
2022/03/31 01:45:19;;;;;;;7.80;4.50;;;2.90;99.90;;;;;;5030848;28;20176;-75
2022/03/31 01:47:45;;;;;;;8.40;4.57;;;3.00;99.90;;;;;;5030043;28;20210;-75
2022/03/31 01:50:12;;;;;;;7.43;4.40;;;3.00;99.90;;;;;;5028625;28;20241;-75
2022/03/31 01:52:38;;;;;;;7.70;4.37;;;2.90;99.90;;;;;;5030494;28;20238;-75
2022/03/31 01:55:05;;;;;;;7.60;4.50;;;2.80;99.90;;;;;;5029142;28;20223;-75
2022/03/31 01:57:31;;;;;;;7.90;4.60;;;2.80;99.90;;;;;;5030738;28;20214;-75
2022/03/31 01:59:56;;;;;;;8.50;4.23;;;2.90;99.90;;;;;;5028372;28;20215;-75
2022/03/31 02:02:22;;;;;;;8.83;4.33;;;2.80;99.90;;;;;;5045854;28;20766;-75
2022/03/31 02:04:48;;;;;;;7.73;4.57;;;2.80;99.90;;;;;;5030336;28;20219;-75
2022/03/31 02:07:14;;;;;;;9.63;4.10;;;2.80;99.90;;;;;;5030490;28;20239;-74
2022/03/31 02:09:40;;;;;;;7.37;4.20;;;2.80;99.90;;;;;;5029418;28;20208;-75
2022/03/31 02:12:06;;;;;;;10.87;4.50;;;2.70;99.90;;;;;;5030937;28;20780;-75
2022/03/31 02:14:37;;;;;;;6.30;3.60;;;2.70;99.90;;;;;;5028997;28;20243;-75
2022/03/31 02:17:06;;;;;;;9.67;4.03;;;2.60;99.90;;;;;;5030450;28;20230;-74
2022/03/31 02:19:31;;;;;;;6.93;4.10;;;2.60;99.90;;;;;;5040574;23;20223;-76
2022/03/31 02:21:57;;;;;;;8.13;3.70;;;2.60;99.90;;;;;;5010784;28;20235;-78
2022/03/31 02:24:22;;;;;;;5.60;3.80;;;2.60;99.90;;;;;;5006178;28;20187;-76
2022/03/31 02:26:48;;;;;;;6.77;3.83;;;2.50;99.90;;;;;;5014442;28;20586;-77
2022/03/31 02:29:14;;;;;;;5.93;3.50;;;2.50;99.90;;;;;;5011980;28;20219;-78
2022/03/31 02:31:39;;;;;;;6.47;3.53;;;2.50;99.90;;;;;;5002079;28;20212;-77
2022/03/31 02:34:05;;;;;;;6.57;3.90;;;2.40;99.90;;;;;;5002884;28;20255;-76
2022/03/31 02:36:30;;;;;;;6.03;3.73;;;2.30;99.90;;;;;;5014088;28;20190;-77
2022/03/31 02:38:56;;;;;;;6.33;3.90;;;2.20;99.90;;;;;;4999024;28;20212;-76
2022/03/31 02:41:22;;;;;;;5.67;3.63;;;2.30;99.90;;;;;;4993865;28;20236;-75
2022/03/31 02:43:47;;;;;;;6.83;3.73;;;2.40;99.90;;;;;;4993119;28;20221;-76
2022/03/31 02:46:13;;;;;;;8.43;3.30;;;2.20;99.90;;;;;;4992882;28;20676;-77
2022/03/31 02:48:39;;;;;;;5.23;3.10;;;2.20;99.90;;;;;;4993115;28;20209;-77
2022/03/31 02:51:05;;;;;;;5.77;3.77;;;2.10;99.90;;;;;;4993119;28;20589;-78
2022/03/31 02:56:15;;;;;;;8.13;3.50;;;2.00;99.90;;;;;;4994273;28;20637;-76
2022/03/31 02:58:40;;;;;;;8.30;3.67;;;1.90;99.90;;;;;;4993036;28;20218;-76
2022/03/31 03:01:06;;;;;;;9.53;3.53;;;2.00;99.90;;;;;;4993802;28;20214;-77
2022/03/31 03:03:32;;;;;;;8.60;3.70;;;2.00;99.90;;;;;;5000012;28;20269;-77
2022/03/31 03:05:58;;;;;;;6.83;3.80;;;1.90;99.90;;;;;;4992627;28;20306;-77
2022/03/31 03:08:26;;;;;;;6.53;3.33;;;1.90;99.90;;;;;;4995928;28;20212;-75
2022/03/31 03:10:53;;;;;;;8.50;3.97;;;1.90;99.90;;;;;;5003288;28;20342;-76
2022/03/31 03:13:18;;;;;;;9.03;3.97;;;1.90;99.90;;;;;;5013381;28;20208;-78
2022/03/31 03:15:44;;;;;;;6.77;3.60;;;1.90;99.90;;;;;;4993459;28;20570;-77
2022/03/31 03:18:10;;;;;;;7.93;4.03;;;1.90;99.90;;;;;;4993438;28;20183;-77
2022/03/31 03:20:35;;;;;;;5.57;3.33;;;1.80;99.90;;;;;;4993238;28;20233;-75
2022/03/31 03:23:01;;;;;;;10.23;4.23;;;1.70;99.90;;;;;;4993405;28;20604;-75
2022/03/31 03:25:26;;;;;;;7.70;3.90;;;1.70;99.90;;;;;;4993341;28;20198;-75
2022/03/31 03:27:52;;;;;;;7.87;3.53;;;1.70;99.90;;;;;;4993027;28;20213;-76
2022/03/31 03:30:18;;;;;;;8.47;3.53;;;1.70;99.90;;;;;;4993388;28;20194;-75
2022/03/31 03:32:45;;;;;;;6.47;3.50;;;1.60;99.90;;;;;;4995498;28;20592;-76
2022/03/31 03:35:11;;;;;;;6.43;3.40;;;1.60;99.90;;;;;;4998421;28;20318;-74
2022/03/31 03:37:38;;;;;;;8.67;4.27;;;1.70;99.90;;;;;;4994018;28;20228;-75
2022/03/31 03:40:09;;;;;;;6.53;3.97;;;1.50;99.90;;;;;;4992593;28;20210;-74
2022/03/31 03:42:35;;;;;;;9.43;3.80;;;1.50;99.90;;;;;;4994083;28;20602;-75
2022/03/31 03:45:01;;;;;;;6.50;3.50;;;1.50;99.90;;;;;;4993059;28;20178;-75
2022/03/31 03:47:28;;;;;;;10.57;3.90;;;1.60;99.90;;;;;;4991795;28;20214;-76
2022/03/31 03:49:53;;;;;;;7.43;3.43;;;1.50;99.90;;;;;;4992531;28;20299;-75
2022/03/31 03:52:19;;;;;;;7.13;3.33;;;1.60;99.90;;;;;;4991697;28;20679;-76
2022/03/31 03:54:44;;;;;;;6.20;3.70;;;1.50;99.90;;;;;;4991591;28;20206;-76
2022/03/31 03:57:10;;;;;;;6.63;3.80;;;1.50;99.90;;;;;;4992072;28;20173;-76
2022/03/31 03:59:36;;;;;;;7.03;3.60;;;1.50;99.90;;;;;;4990558;28;20210;-77
2022/03/31 04:02:02;;;;;;;6.43;3.10;;;1.40;99.90;;;;;;4992777;28;20206;-75
2022/03/31 04:04:31;;;;;;;6.43;3.03;;;1.30;99.90;;;;;;4999670;28;20222;-76
2022/03/31 04:06:58;;;;;;;8.47;3.13;;;1.30;99.90;;;;;;4991510;28;20720;-76
2022/03/31 04:09:23;;;;;;;9.60;3.50;;;1.30;99.90;;;;;;4990928;28;20217;-75
2022/03/31 04:11:49;;;;;;;6.93;3.00;;;1.20;99.90;;;;;;4992455;28;20307;-75
2022/03/31 04:14:15;;;;;;;7.43;3.50;;;1.20;99.90;;;;;;4991199;28;20227;-75
2022/03/31 04:16:40;;;;;;;7.83;3.30;;;1.20;99.90;;;;;;4992327;28;20222;-75
2022/03/31 04:19:09;;;;;;;9.10;3.33;;;1.30;99.90;;;;;;4991811;28;20215;-75
2022/03/31 04:21:36;;;;;;;5.60;3.17;;;1.20;99.90;;;;;;4991311;28;20273;-75
2022/03/31 04:24:02;;;;;;;5.77;3.23;;;1.10;99.90;;;;;;4993076;28;20192;-76
2022/03/31 04:26:28;;;;;;;6.20;3.23;;;1.10;99.90;;;;;;4990853;28;20240;-76
2022/03/31 04:28:54;;;;;;;6.00;3.27;;;1.10;99.90;;;;;;4990506;28;20219;-76
2022/03/31 04:31:19;;;;;;;5.80;3.17;;;1.10;99.90;;;;;;4993705;28;20224;-75
2022/03/31 04:33:45;;;;;;;4.33;3.00;;;1.20;99.90;;;;;;4998137;28;20246;-76
2022/03/31 04:36:10;;;;;;;5.73;3.47;;;1.20;99.90;;;;;;4992631;28;20182;-76
2022/03/31 04:38:36;;;;;;;6.33;3.13;;;1.20;99.90;;;;;;4991583;28;20218;-75
2022/03/31 04:41:02;;;;;;;7.53;3.17;;;1.20;99.90;;;;;;4991801;28;20216;-76
2022/03/31 04:43:27;;;;;;;6.07;3.30;;;1.20;99.90;;;;;;4992126;28;20214;-77
2022/03/31 04:45:53;;;;;;;4.90;2.60;;;1.20;99.90;;;;;;4992329;28;20308;-77
2022/03/31 04:48:18;;;;;;;6.33;3.47;;;1.20;99.90;;;;;;4991942;28;20797;-76
2022/03/31 04:50:44;;;;;;;5.50;3.00;;;1.00;99.90;;;;;;4993576;28;20219;-76
2022/03/31 04:53:11;;;;;;;6.53;2.93;;;0.90;99.90;;;;;;5011597;28;20291;-76
2022/03/31 04:55:37;;;;;;;6.53;3.20;;;1.00;99.90;;;;;;5011518;28;20358;-75
2022/03/31 04:58:03;;;;;;;5.27;3.00;;;1.00;99.90;;;;;;5011283;28;20257;-75
2022/03/31 05:00:29;;;;;;;5.30;2.67;;;0.90;99.90;;;;;;5011856;28;20610;-75
2022/03/31 05:02:55;;;;;;;6.60;3.07;;;0.90;99.90;;;;;;5011629;28;20221;-74
2022/03/31 05:05:21;;;;;;;5.27;2.83;;;0.90;99.90;;;;;;5010634;28;20237;-76
2022/03/31 05:07:46;;;;;;;5.43;2.53;;;1.00;99.90;;;;;;5004699;28;20209;-75
2022/03/31 05:10:12;;;;;;;8.87;3.20;;;1.10;99.90;;;;;;5021780;28;20300;-75
2022/03/31 05:12:37;;;;;;;6.37;3.07;;;1.10;99.90;;;;;;5025111;28;20200;-76
2022/03/31 05:15:03;;;;;;;5.00;2.77;;;1.10;99.90;;;;;;5024362;28;20278;-76
2022/03/31 05:17:33;;;;;;;4.60;2.80;;;1.20;99.90;;;;;;5022278;28;20611;-76
2022/03/31 05:20:03;;;;;;;4.23;2.33;;;1.20;99.90;;;;;;5014600;28;20231;-75
2022/03/31 05:22:30;;;;;;;4.77;2.73;;;1.20;99.90;;;;;;5017952;28;20209;-75
2022/03/31 05:24:55;;;;;;;6.07;2.80;;;1.10;99.90;;;;;;5018536;28;20225;-75
2022/03/31 05:27:21;;;;;;;5.37;3.00;;;1.10;99.90;;;;;;5018599;28;20175;-74
2022/03/31 05:29:46;;;;;;;7.40;3.10;;;1.10;99.90;;;;;;5019147;28;20205;-75
2022/03/31 05:32:12;;;;;;;5.00;3.27;;;1.30;99.90;;;;;;5014358;28;20582;-76
2022/03/31 05:34:37;;;;;;;5.07;2.87;;;1.60;99.90;;;;;;5012628;28;20228;-76
2022/03/31 05:37:04;;;;;;;4.50;2.60;;;1.40;99.90;;;;;;5014630;28;20216;-77
2022/03/31 05:39:32;;;;;;;4.53;2.87;;;1.40;99.90;;;;;;5013467;28;20196;-76
2022/03/31 05:41:57;;;;;;;10.43;3.20;;;1.70;99.90;;;;;;5011638;28;20226;-79
2022/03/31 05:44:23;;;;;;;10.10;3.20;;;1.50;99.90;;;;;;5012226;28;20213;-76
2022/03/31 05:46:49;;;;;;;4.63;2.43;;;1.70;99.90;;;;;;5010950;28;20252;-76
2022/03/31 05:49:15;;;;;;;3.60;1.80;;;1.80;99.90;;;;;;5009663;28;20226;-76
2022/03/31 05:51:40;;;;;;;3.43;2.10;;;1.60;99.90;;;;;;5003104;28;20278;-76
2022/03/31 05:54:06;;;;;;;12.47;2.80;;;1.80;99.90;;;;;;5011376;28;20216;-77
2022/03/31 05:56:32;;;;;;;9.03;3.30;;;2.00;99.90;;;;;;5011007;28;20204;-76
2022/03/31 05:58:58;;;;;;;6.87;3.27;;;2.00;99.90;;;;;;5013263;28;20289;-76
2022/03/31 06:01:23;;;;;;;8.77;3.37;;;2.40;99.90;;;;;;5014728;28;20230;-76
2022/03/31 06:03:48;;;;;;;5.37;3.33;;;2.60;99.90;;;;;;5015109;28;20224;-77
2022/03/31 06:06:14;;;;;;;9.27;3.30;;;2.80;99.90;;;;;;5014247;28;20173;-76
2022/03/31 06:08:39;;;;;;;7.47;2.80;;;2.90;99.90;;;;;;5011645;28;20230;-76
2022/03/31 06:11:05;;;;;;;6.20;2.50;;;2.80;99.90;;;;;;5009448;28;20302;-76
2022/03/31 06:13:31;;;;;;;5.50;2.40;;;3.10;99.90;;;;;;5014720;28;20254;-76
2022/03/31 06:15:56;;;;;;;9.00;3.00;;;2.90;99.90;;;;;;5008551;28;20231;-75
2022/03/31 06:18:23;;;;;;;4.60;2.83;;;2.70;99.90;;;;;;5013235;28;20205;-75
2022/03/31 06:20:48;;;;;;;5.57;2.93;;;2.70;99.90;;;;;;5007162;28;20219;-76
2022/03/31 06:23:14;;;;;;;4.53;2.60;;;2.50;99.90;;;;;;5014613;28;20704;-76
2022/03/31 06:25:42;;;;;;;5.60;2.73;;;2.70;99.90;;;;;;5004931;28;20216;-76
2022/03/31 06:28:08;;;;;;;6.20;2.83;;;2.80;99.90;;;;;;5013641;28;20210;-77
2022/03/31 06:30:34;;;;;;;6.07;2.73;;;3.00;99.90;;;;;;5013964;28;20708;-77
2022/03/31 06:33:00;;;;;;;5.37;3.20;;;3.80;99.90;;;;;;5014995;28;20264;-76
2022/03/31 06:35:25;;;;;;;8.13;3.10;;;4.10;99.90;;;;;;5014169;28;20219;-77
2022/03/31 06:37:51;;;;;;;18.70;3.43;;;3.90;99.90;;;;;;5012353;28;20259;-76
2022/03/31 06:40:18;;;;;;;6.57;2.83;;;4.00;99.90;;;;;;5013649;28;20216;-76
2022/03/31 06:42:45;;;;;;;10.03;2.77;;;4.50;99.90;;;;;;5015770;28;20181;-77
2022/03/31 06:45:14;;;;;;;6.03;2.87;;;4.40;99.90;;;;;;5024993;28;20188;-78
2022/03/31 06:47:39;;;;;;;4.03;2.40;;;5.00;99.90;;;;;;5012183;28;20209;-77
2022/03/31 06:50:06;;;;;;;8.23;2.77;;;5.90;99.90;;;;;;5007534;28;20223;-77
2022/03/31 06:52:32;;;;;;;4.57;2.77;;;5.50;99.90;;;;;;5011923;28;20256;-77
2022/03/31 06:54:57;;;;;;;5.33;3.03;;;5.00;99.90;;;;;;5013906;28;20223;-78
2022/03/31 06:57:23;;;;;;;6.37;2.57;;;5.20;99.90;;;;;;5012967;28;20184;-77
2022/03/31 06:59:49;;;;;;;7.90;3.20;;;5.20;99.90;;;;;;5011771;28;20262;-77
2022/03/31 07:02:15;;;;;;;7.50;3.57;;;4.90;99.90;;;;;;5014080;28;20300;-78
2022/03/31 07:04:40;;;;;;;6.73;3.20;;;5.30;99.90;;;;;;5013588;28;20235;-76
2022/03/31 07:07:06;;;;;;;7.97;3.27;;;6.30;99.90;;;;;;5014291;28;20216;-77
2022/03/31 07:09:31;;;;;;;9.47;3.83;;;6.40;99.90;;;;;;5006836;28;20196;-79
2022/03/31 07:11:56;;;;;;;5.53;3.40;;;6.80;99.90;;;;;;5014069;28;20232;-80
2022/03/31 07:14:22;;;;;;;6.67;3.50;;;6.70;99.90;;;;;;5011964;28;20283;-77
2022/03/31 07:16:47;;;;;;;6.43;3.03;;;6.00;99.90;;;;;;5005331;28;20242;-81
2022/03/31 07:19:13;;;;;;;8.47;3.67;;;6.30;99.90;;;;;;5012183;28;20212;-79
2022/03/31 07:21:38;;;;;;;5.47;3.37;;;6.20;99.90;;;;;;5003493;28;20192;-80
2022/03/31 07:24:04;;;;;;;7.53;3.53;;;5.70;99.90;;;;;;5001267;28;20230;-79
2022/03/31 07:26:31;;;;;;;6.47;3.57;;;4.80;99.90;;;;;;5006155;28;20219;-79
2022/03/31 07:28:56;;;;;;;6.13;3.33;;;4.90;99.90;;;;;;5001866;28;20757;-78
2022/03/31 07:31:28;;;;;;;5.23;3.10;;;4.90;99.90;;;;;;5002972;28;20226;-79
2022/03/31 07:33:54;;;;;;;5.47;3.00;;;5.50;99.90;;;;;;5003327;28;20591;-79
2022/03/31 07:36:19;;;;;;;6.40;3.67;;;5.30;99.90;;;;;;5003755;28;20179;-78
2022/03/31 07:38:48;;;;;;;4.20;2.73;;;5.10;99.90;;;;;;5013467;28;20254;-78
2022/03/31 07:41:17;;;;;;;6.13;3.27;;;4.90;99.90;;;;;;5002554;28;20210;-78
2022/03/31 07:43:42;;;;;;;5.00;3.30;;;5.10;99.90;;;;;;5004172;28;20201;-78
2022/03/31 07:46:08;;;;;;;7.63;4.17;;;4.60;99.90;;;;;;5004404;28;20640;-76
2022/03/31 07:48:34;;;;;;;5.00;3.10;;;5.00;99.90;;;;;;5001533;28;20180;-75
2022/03/31 07:50:59;;;;;;;8.20;3.50;;;5.40;99.90;;;;;;5006017;28;20206;-75
2022/03/31 07:53:27;;;;;;;8.83;3.33;;;4.80;99.90;;;;;;5003322;28;20222;-75
2022/03/31 07:55:54;;;;;;;9.63;3.60;;;4.80;99.90;;;;;;5005366;28;20654;-77
2022/03/31 07:58:20;;;;;;;5.23;3.70;;;5.30;99.90;;;;;;5011429;28;20217;-77
2022/03/31 08:00:50;;;;;;;5.30;3.10;;;5.30;99.90;;;;;;5013506;28;20204;-76
2022/03/31 08:03:17;;;;;;;8.77;3.40;;;5.70;99.90;;;;;;5014984;28;20187;-75
2022/03/31 08:05:42;;;;;;;9.40;3.33;;;6.20;99.90;;;;;;5014939;28;20582;-77
2022/03/31 08:08:08;;;;;;;6.13;3.00;;;6.60;99.90;;;;;;5011644;28;20231;-74
2022/03/31 08:10:34;;;;;;;6.23;3.03;;;6.30;99.90;;;;;;5007579;28;20224;-74
2022/03/31 08:12:59;;;;;;;5.10;3.27;;;5.80;99.90;;;;;;5003682;28;20235;-74
2022/03/31 08:15:25;;;;;;;29.97;16.90;;;6.20;99.90;;;;;;5002809;28;20236;-74
2022/03/31 08:17:51;;;;;;;7.47;4.33;;;6.20;99.90;;;;;;5000025;28;20215;-76
2022/03/31 08:20:18;;;;;;;6.67;4.17;;;6.20;99.90;;;;;;5022766;22;20218;-74
2022/03/31 08:22:45;;;;;;;9.77;4.10;;;6.70;99.90;;;;;;5050659;28;20207;-77
2022/03/31 08:25:11;;;;;;;10.00;4.10;;;6.90;99.90;;;;;;5051673;28;20259;-77
2022/03/31 08:27:38;;;;;;;8.37;3.87;;;7.20;99.90;;;;;;5051314;28;20195;-78
2022/03/31 08:30:07;;;;;;;8.07;3.83;;;7.60;99.90;;;;;;5017665;28;20190;-77
2022/03/31 08:32:38;;;;;;;7.60;3.37;;;6.70;99.90;;;;;;5008937;28;20216;-77
2022/03/31 08:35:05;;;;;;;7.27;4.03;;;7.30;99.90;;;;;;5027839;28;20281;-78
2022/03/31 08:37:31;;;;;;;6.90;3.40;;;6.90;99.90;;;;;;5029936;28;20646;-76
2022/03/31 08:39:56;;;;;;;7.07;3.40;;;6.50;99.90;;;;;;5032241;28;20252;-80
2022/03/31 08:42:22;;;;;;;5.37;3.83;;;6.20;99.90;;;;;;5034066;28;20201;-77
2022/03/31 08:44:50;;;;;;;10.13;3.90;;;6.50;99.90;;;;;;5028963;28;20207;-78
2022/03/31 08:47:17;;;;;;;8.17;3.90;;;7.00;99.90;;;;;;5032739;28;20261;-77
2022/03/31 08:49:44;;;;;;;10.53;4.70;;;7.40;99.90;;;;;;5032796;28;20210;-81
2022/03/31 08:52:10;;;;;;;7.77;3.70;;;8.00;99.90;;;;;;5028132;28;20582;-76
2022/03/31 08:54:36;;;;;;;8.47;3.90;;;7.60;99.90;;;;;;5016871;28;20207;-75
2022/03/31 08:57:02;;;;;;;6.50;3.60;;;7.30;99.90;;;;;;5035768;28;20176;-76
2022/03/31 08:59:27;;;;;;;5.77;3.43;;;7.00;99.90;;;;;;5034135;28;20699;-75
2022/03/31 09:01:53;;;;;;;6.27;4.07;;;7.20;99.90;;;;;;5037397;28;20231;-76
2022/03/31 09:04:20;;;;;;;7.10;4.27;;;7.50;99.90;;;;;;5036317;28;20234;-77
2022/03/31 09:07:03;;;;;;;9.83;4.43;;;7.20;99.90;;;;;;5043692;28;20175;-83
2022/03/31 09:09:29;;;;;;;13.70;3.77;;;7.30;99.90;;;;;;5049758;28;20167;-79
2022/03/31 09:11:54;;;;;;;7.27;4.10;;;7.80;99.90;;;;;;5026288;28;20220;-75
2022/03/31 09:14:31;;;;;;;6.07;4.13;;;7.10;99.90;;;;;;5032601;28;20215;-83
2022/03/31 09:16:57;;;;;;;12.77;4.50;;;6.50;99.90;;;;;;5031023;28;20238;-83
2022/03/31 09:19:24;;;;;;;12.10;4.27;;;6.60;99.90;;;;;;5047704;28;20279;-80
2022/03/31 09:21:50;;;;;;;9.37;4.10;;;6.70;99.90;;;;;;5052820;28;20234;-77
2022/03/31 09:24:16;;;;;;;10.27;4.33;;;6.50;99.90;;;;;;5033819;28;20639;-79
2022/03/31 09:26:46;;;;;;;8.90;4.40;;;6.80;99.90;;;;;;5034325;28;20211;-79
2022/03/31 09:29:13;;;;;;;7.83;4.40;;;6.70;99.90;;;;;;5035262;28;20223;-78
2022/03/31 09:31:39;;;;;;;8.90;3.90;;;7.10;99.90;;;;;;5036984;28;20593;-78
2022/03/31 09:34:04;;;;;;;9.20;4.13;;;6.90;99.90;;;;;;5031419;28;20219;-79
2022/03/31 09:36:30;;;;;;;6.37;3.63;;;6.40;99.90;;;;;;5017987;28;20256;-80
2022/03/31 09:39:00;;;;;;;11.77;4.17;;;6.90;99.90;;;;;;5016865;28;20203;-79
2022/03/31 09:41:34;;;;;;;7.10;4.27;;;7.10;99.90;;;;;;5017720;28;20231;-76
2022/03/31 09:44:02;;;;;;;8.67;4.10;;;6.70;99.90;;;;;;5029281;28;20203;-81
2022/03/31 09:46:30;;;;;;;9.13;4.43;;;6.70;99.90;;;;;;5024758;28;20215;-76
2022/03/31 09:48:56;;;;;;;12.07;4.20;;;7.20;99.90;;;;;;5033830;28;20208;-77
2022/03/31 09:51:24;;;;;;;10.10;4.20;;;7.50;99.90;;;;;;5019558;28;20198;-77
2022/03/31 09:53:54;;;;;;;6.23;3.80;;;7.70;99.90;;;;;;5029358;28;20236;-75
2022/03/31 09:56:22;;;;;;;6.47;3.67;;;7.20;99.90;;;;;;5032459;28;20738;-74
2022/03/31 09:58:48;;;;;;;11.67;4.33;;;7.20;99.90;;;;;;5016232;28;20216;-77
2022/03/31 10:01:15;;;;;;;5.33;4.30;;;7.40;99.90;;;;;;5007365;28;20213;-76
2022/03/31 10:03:41;;;;;;;7.47;4.23;;;7.40;99.90;;;;;;5019905;28;20247;-76
2022/03/31 10:06:08;;;;;;;9.00;4.70;;;7.20;99.90;;;;;;5018150;28;20193;-77
2022/03/31 10:08:37;;;;;;;8.53;4.07;;;7.10;99.90;;;;;;5014063;28;20205;-80
2022/03/31 10:11:04;;;;;;;5.33;3.70;;;7.40;99.90;;;;;;5012770;28;20572;-77
2022/03/31 10:13:43;;;;;;;8.70;4.33;;;7.50;99.90;;;;;;5012845;28;20208;-80
2022/03/31 10:16:16;;;;;;;8.00;4.60;;;7.60;99.90;;;;;;5016134;28;20634;-82
2022/03/31 10:18:46;;;;;;;7.40;4.70;;;7.80;99.90;;;;;;5016320;28;20661;-81
2022/03/31 10:21:12;;;;;;;13.37;4.97;;;7.70;99.90;;;;;;5018908;28;20221;-77
2022/03/31 10:26:33;;;;;;;8.27;5.00;;;8.00;99.90;;;;;;5022352;28;20238;-77
2022/03/31 10:29:00;;;;;;;11.40;5.27;;;8.00;99.90;;;;;;5017045;28;20805;-75
2022/03/31 10:31:37;;;;;;;7.60;4.40;;;7.90;99.90;;;;;;5013478;28;20224;-76
2022/03/31 10:34:04;;;;;;;7.87;4.40;;;7.70;99.90;;;;;;5012435;28;20220;-75
2022/03/31 10:36:39;;;;;;;7.63;4.87;;;7.60;99.90;;;;;;5004413;28;20264;-75
2022/03/31 10:39:07;;;;;;;8.07;4.43;;;7.50;99.90;;;;;;5011333;28;20212;-74
2022/03/31 10:41:36;;;;;;;7.23;3.83;;;7.30;99.90;;;;;;5000676;28;20295;-75
2022/03/31 10:44:18;;;;;;;7.23;4.20;;;7.40;99.90;;;;;;5005323;28;20695;-76
2022/03/31 10:46:46;;;;;;;8.50;4.27;;;7.60;99.90;;;;;;5015717;28;20216;-76
2022/03/31 10:49:17;;;;;;;8.07;4.20;;;7.80;99.90;;;;;;5016284;28;20220;-78
2022/03/31 10:51:45;;;;;;;8.00;4.90;;;8.40;99.90;;;;;;5002221;28;20575;-77
2022/03/31 10:54:23;;;;;;;11.17;4.73;;;8.40;99.90;;;;;;5014521;28;20200;-78
2022/03/31 10:56:48;;;;;;;5.97;4.37;;;8.20;99.90;;;;;;5024974;28;20209;-80
2022/03/31 10:59:15;;;;;;;7.17;4.20;;;8.50;99.90;;;;;;5029467;28;20208;-80
2022/03/31 11:01:41;;;;;;;10.93;6.00;;;8.50;99.90;;;;;;5030303;28;20228;-79
2022/03/31 11:04:09;;;;;;;8.07;4.50;;;8.50;99.90;;;;;;5027542;28;20221;-80
2022/03/31 11:07:01;;;;;;;13.50;5.73;;;8.20;99.90;;;;;;5019972;28;20225;-76
2022/03/31 11:09:27;;;;;;;13.70;4.60;;;7.80;99.90;;;;;;5012747;28;20192;-76
2022/03/31 11:11:55;;;;;;;7.07;3.80;;;7.80;99.90;;;;;;5022639;28;20212;-78
2022/03/31 11:14:21;;;;;;;8.93;4.37;;;8.00;99.90;;;;;;5023876;28;20591;-76
2022/03/31 11:16:46;;;;;;;10.57;4.60;;;8.00;99.90;;;;;;5014020;28;20310;-77
2022/03/31 11:19:13;;;;;;;7.30;4.67;;;7.90;99.90;;;;;;5013485;28;20219;-75
2022/03/31 11:21:40;;;;;;;18.73;4.60;;;8.10;99.90;;;;;;5020377;28;20208;-74
2022/03/31 11:24:07;;;;;;;15.77;4.70;;;8.30;99.90;;;;;;5014457;28;20209;-77
2022/03/31 11:26:35;;;;;;;9.07;5.73;;;8.60;99.90;;;;;;5013901;28;20204;-76
2022/03/31 11:29:02;;;;;;;6.40;4.30;;;8.60;99.90;;;;;;5035489;28;20223;-75
2022/03/31 11:31:28;;;;;;;13.57;5.50;;;8.30;99.90;;;;;;5033123;28;20624;-75
2022/03/31 11:33:55;;;;;;;8.37;4.57;;;8.40;99.90;;;;;;5033173;28;20228;-75
2022/03/31 11:36:21;;;;;;;5.23;3.83;;;8.60;99.90;;;;;;5033516;28;20196;-75
2022/03/31 11:38:58;;;;;;;11.00;4.63;;;8.70;99.90;;;;;;5034094;28;20341;-76
2022/03/31 11:41:25;;;;;;;6.53;4.03;;;8.60;99.90;;;;;;5034153;28;20208;-75
2022/03/31 11:43:56;;;;;;;8.23;4.23;;;8.10;99.90;;;;;;5034359;28;20228;-76
2022/03/31 11:46:21;;;;;;;13.13;5.77;;;8.40;99.90;;;;;;5037581;28;20212;-74
2022/03/31 11:48:49;;;;;;;10.10;4.60;;;8.60;99.90;;;;;;5030599;28;20229;-76
2022/03/31 11:51:15;;;;;;;11.20;3.83;;;8.10;99.90;;;;;;5025824;28;20216;-74
2022/03/31 11:53:43;;;;;;;9.13;4.47;;;8.00;99.90;;;;;;5031090;28;20208;-75
2022/03/31 11:56:21;;;;;;;7.77;4.23;;;7.90;99.90;;;;;;5031529;28;20692;-74
2022/03/31 11:58:52;;;;;;;8.50;4.47;;;8.00;99.90;;;;;;5030808;28;20452;-74
2022/03/31 12:01:43;;;;;;;7.53;4.13;;;8.00;99.90;;;;;;5013584;28;20594;-77
2022/03/31 12:04:23;;;;;;;7.10;3.57;;;8.00;99.90;;;;;;5028108;28;20235;-75
2022/03/31 12:06:55;;;;;;;7.93;4.67;;;7.80;99.90;;;;;;5032103;28;20196;-78
2022/03/31 12:09:28;;;;;;;7.47;4.87;;;7.90;99.90;;;;;;5037578;28;20669;-78
2022/03/31 12:11:55;;;;;;;8.60;4.57;;;7.90;99.90;;;;;;5034349;28;20208;-79
2022/03/31 12:14:21;;;;;;;7.03;4.50;;;7.90;99.90;;;;;;5017757;28;20213;-79
2022/03/31 12:16:50;;;;;;;8.53;4.83;;;8.10;99.90;;;;;;5014028;28;20209;-77
2022/03/31 12:19:16;;;;;;;9.43;5.37;;;8.30;99.90;;;;;;5012314;28;20217;-77
2022/03/31 12:21:49;;;;;;;9.13;4.83;;;8.30;99.90;;;;;;5017764;28;20240;-77
2022/03/31 12:24:16;;;;;;;8.53;4.67;;;8.30;99.90;;;;;;5005657;28;20178;-77
2022/03/31 12:26:59;;;;;;;7.83;4.40;;;8.30;99.90;;;;;;5012902;28;20224;-76
2022/03/31 12:29:27;;;;;;;8.90;5.30;;;7.90;99.90;;;;;;5017814;28;20204;-75
2022/03/31 12:32:19;;;;;;;9.07;4.47;;;8.20;99.90;;;;;;5012886;28;20700;-75
2022/03/31 12:34:59;;;;;;;7.07;4.90;;;8.20;99.90;;;;;;5011932;28;20982;-76
2022/03/31 12:37:31;;;;;;;10.83;5.13;;;7.80;99.90;;;;;;5013292;28;20236;-74
2022/03/31 12:39:57;;;;;;;8.23;4.80;;;7.80;99.90;;;;;;5006358;28;20221;-74
2022/03/31 12:42:23;;;;;;;5.17;4.10;;;7.90;99.90;;;;;;5009224;28;20232;-75
2022/03/31 12:44:49;;;;;;;7.60;4.80;;;8.30;99.90;;;;;;5013248;28;20249;-75
2022/03/31 12:47:23;;;;;;;8.87;4.40;;;8.20;99.90;;;;;;5013661;28;20209;-78
2022/03/31 12:49:48;;;;;;;8.77;4.33;;;8.10;99.90;;;;;;5013371;28;20693;-79
2022/03/31 12:52:16;;;;;;;6.23;4.43;;;8.20;99.90;;;;;;5032507;28;20217;-78
2022/03/31 12:54:48;;;;;;;9.20;5.00;;;8.20;99.90;;;;;;5013364;28;20342;-78
2022/03/31 12:57:20;;;;;;;7.17;4.13;;;8.20;99.90;;;;;;5011901;28;20188;-76
2022/03/31 12:59:58;;;;;;;7.47;4.37;;;8.00;99.90;;;;;;5011351;28;20584;-77